Terminal Aerodrome Forecast
Issued by NWS Wilmington, NC

Home | Current Version | Previous Version | Text Only | Print | Product List | Glossary On
Versions: 1 2 3 4 5 6 7 8 9 10 11 12 13 14 15 16 17 18
000
FTUS42 KILM 201800 AAA
TAFILM
TAF AMD
KILM 201856Z 2019/2118 18008KT P6SM VCTS FEW040CB BKN060 OVC100
      TEMPO 2019/2022 3SM TSRA BR BKN035CB OVC045
     FM210000 VRB02KT P6SM FEW050 BKN100
     FM210900 00000KT 4SM BR BKN250
     FM211300 VRB04KT P6SM SCT250=

USA.gov is the U.S. government's official web portal to all federal, state and local government web resources and services.